sensor_id;sensor_type;location;lat;lon;timestamp;P1;durP1;ratioP1;P2;durP2;ratioP2
54328;SDS011;40710;51.120;13.136;2023-12-04T00:00:33;30.91;;;29.33;;
54328;SDS011;40710;51.120;13.136;2023-12-04T00:02:58;31.28;;;29.27;;
54328;SDS011;40710;51.120;13.136;2023-12-04T00:05:22;31.11;;;29.29;;
54328;SDS011;40710;51.120;13.136;2023-12-04T00:07:47;31.65;;;29.89;;
54328;SDS011;40710;51.120;13.136;2023-12-04T00:10:11;31.38;;;29.35;;
54328;SDS011;40710;51.120;13.136;2023-12-04T00:12:36;31.52;;;29.72;;
54328;SDS011;40710;51.120;13.136;2023-12-04T00:15:00;30.05;;;28.74;;
54328;SDS011;40710;51.120;13.136;2023-12-04T00:17:25;30.79;;;29.21;;
54328;SDS011;40710;51.120;13.136;2023-12-04T00:19:49;31.93;;;29.92;;
54328;SDS011;40710;51.120;13.136;2023-12-04T00:22:14;31.81;;;30.08;;
54328;SDS011;40710;51.120;13.136;2023-12-04T00:24:38;31.42;;;29.65;;
54328;SDS011;40710;51.120;13.136;2023-12-04T00:27:03;31.67;;;29.43;;
54328;SDS011;40710;51.120;13.136;2023-12-04T00:29:27;31.55;;;29.47;;
54328;SDS011;40710;51.120;13.136;2023-12-04T00:31:52;31.73;;;29.56;;
54328;SDS011;40710;51.120;13.136;2023-12-04T00:34:17;30.90;;;29.00;;
54328;SDS011;40710;51.120;13.136;2023-12-04T00:36:41;31.19;;;29.09;;
54328;SDS011;40710;51.120;13.136;2023-12-04T00:39:06;31.97;;;29.58;;
54328;SDS011;40710;51.120;13.136;2023-12-04T00:41:30;29.72;;;28.11;;
54328;SDS011;40710;51.120;13.136;2023-12-04T00:43:55;30.37;;;28.31;;
54328;SDS011;40710;51.120;13.136;2023-12-04T00:46:19;29.48;;;27.66;;
54328;SDS011;40710;51.120;13.136;2023-12-04T00:48:44;28.07;;;26.51;;
54328;SDS011;40710;51.120;13.136;2023-12-04T00:51:10;28.93;;;27.24;;
54328;SDS011;40710;51.120;13.136;2023-12-04T00:53:34;28.78;;;26.68;;
54328;SDS011;40710;51.120;13.136;2023-12-04T00:55:59;28.77;;;26.57;;
54328;SDS011;40710;51.120;13.136;2023-12-04T00:58:24;27.55;;;25.73;;
54328;SDS011;40710;51.120;13.136;2023-12-04T01:00:48;27.55;;;25.70;;
54328;SDS011;40710;51.120;13.136;2023-12-04T01:03:15;26.84;;;25.28;;
54328;SDS011;40710;51.120;13.136;2023-12-04T01:05:40;26.74;;;25.05;;
54328;SDS011;40710;51.120;13.136;2023-12-04T01:08:05;26.44;;;24.66;;
54328;SDS011;40710;51.120;13.136;2023-12-04T01:10:29;25.90;;;24.24;;
54328;SDS011;40710;51.120;13.136;2023-12-04T01:12:54;25.50;;;24.05;;
54328;SDS011;40710;51.120;13.136;2023-12-04T01:15:19;25.85;;;24.31;;
54328;SDS011;40710;51.120;13.136;2023-12-04T01:17:43;24.80;;;23.56;;
54328;SDS011;40710;51.120;13.136;2023-12-04T01:20:08;25.54;;;24.19;;
54328;SDS011;40710;51.120;13.136;2023-12-04T01:22:33;25.20;;;23.74;;
54328;SDS011;40710;51.120;13.136;2023-12-04T01:24:57;25.57;;;24.08;;
54328;SDS011;40710;51.120;13.136;2023-12-04T01:27:22;25.24;;;23.93;;
54328;SDS011;40710;51.120;13.136;2023-12-04T01:29:46;25.49;;;23.96;;
54328;SDS011;40710;51.120;13.136;2023-12-04T01:32:11;23.71;;;22.52;;
54328;SDS011;40710;51.120;13.136;2023-12-04T01:34:35;24.81;;;23.61;;
54328;SDS011;40710;51.120;13.136;2023-12-04T01:37:00;24.08;;;22.95;;
54328;SDS011;40710;51.120;13.136;2023-12-04T01:39:24;25.06;;;23.63;;
54328;SDS011;40710;51.120;13.136;2023-12-04T01:41:49;23.23;;;21.95;;
54328;SDS011;40710;51.120;13.136;2023-12-04T01:44:14;23.73;;;22.49;;
54328;SDS011;40710;51.120;13.136;2023-12-04T01:46:38;23.78;;;22.27;;
54328;SDS011;40710;51.120;13.136;2023-12-04T01:49:03;23.27;;;21.94;;
54328;SDS011;40710;51.120;13.136;2023-12-04T01:51:28;22.64;;;21.42;;
54328;SDS011;40710;51.120;13.136;2023-12-04T01:53:54;22.33;;;21.08;;
54328;SDS011;40710;51.120;13.136;2023-12-04T01:56:23;22.47;;;21.09;;
54328;SDS011;40710;51.120;13.136;2023-12-04T01:58:48;22.18;;;20.82;;
54328;SDS011;40710;51.120;13.136;2023-12-04T02:01:12;21.50;;;20.24;;
54328;SDS011;40710;51.120;13.136;2023-12-04T02:03:37;21.28;;;19.93;;
54328;SDS011;40710;51.120;13.136;2023-12-04T02:06:02;21.63;;;20.30;;
54328;SDS011;40710;51.120;13.136;2023-12-04T02:08:28;21.30;;;19.98;;
54328;SDS011;40710;51.120;13.136;2023-12-04T02:10:52;20.41;;;19.26;;
54328;SDS011;40710;51.120;13.136;2023-12-04T02:13:17;20.46;;;19.30;;
54328;SDS011;40710;51.120;13.136;2023-12-04T02:15:42;19.79;;;18.69;;
54328;SDS011;40710;51.120;13.136;2023-12-04T02:18:08;18.85;;;17.82;;
54328;SDS011;40710;51.120;13.136;2023-12-04T02:20:33;19.26;;;18.25;;
54328;SDS011;40710;51.120;13.136;2023-12-04T02:22:58;18.63;;;17.59;;
54328;SDS011;40710;51.120;13.136;2023-12-04T02:25:23;18.17;;;17.37;;
54328;SDS011;40710;51.120;13.136;2023-12-04T02:27:51;17.66;;;17.02;;
54328;SDS011;40710;51.120;13.136;2023-12-04T02:30:19;17.23;;;16.41;;
54328;SDS011;40710;51.120;13.136;2023-12-04T02:32:47;17.97;;;17.00;;
54328;SDS011;40710;51.120;13.136;2023-12-04T02:35:14;16.58;;;15.89;;
54328;SDS011;40710;51.120;13.136;2023-12-04T02:37:43;17.87;;;17.02;;
54328;SDS011;40710;51.120;13.136;2023-12-04T02:40:08;17.45;;;16.52;;
54328;SDS011;40710;51.120;13.136;2023-12-04T02:42:35;16.68;;;16.01;;
54328;SDS011;40710;51.120;13.136;2023-12-04T02:44:59;16.37;;;15.69;;
54328;SDS011;40710;51.120;13.136;2023-12-04T02:47:24;16.69;;;15.70;;
54328;SDS011;40710;51.120;13.136;2023-12-04T02:49:48;16.63;;;15.73;;
54328;SDS011;40710;51.120;13.136;2023-12-04T02:52:13;15.91;;;15.12;;
54328;SDS011;40710;51.120;13.136;2023-12-04T02:54:38;16.03;;;15.28;;
54328;SDS011;40710;51.120;13.136;2023-12-04T02:57:03;15.93;;;15.04;;
54328;SDS011;40710;51.120;13.136;2023-12-04T02:59:27;15.39;;;14.52;;
54328;SDS011;40710;51.120;13.136;2023-12-04T03:01:52;15.82;;;14.94;;
54328;SDS011;40710;51.120;13.136;2023-12-04T03:04:16;15.40;;;14.61;;
54328;SDS011;40710;51.120;13.136;2023-12-04T03:06:41;14.53;;;13.94;;
54328;SDS011;40710;51.120;13.136;2023-12-04T03:09:05;14.81;;;14.19;;
54328;SDS011;40710;51.120;13.136;2023-12-04T03:11:30;15.06;;;14.55;;
54328;SDS011;40710;51.120;13.136;2023-12-04T03:13:55;15.51;;;14.60;;
54328;SDS011;40710;51.120;13.136;2023-12-04T03:16:19;15.36;;;14.50;;
54328;SDS011;40710;51.120;13.136;2023-12-04T03:18:44;14.61;;;14.04;;
54328;SDS011;40710;51.120;13.136;2023-12-04T03:21:09;14.39;;;13.76;;
54328;SDS011;40710;51.120;13.136;2023-12-04T03:23:33;13.76;;;13.28;;
54328;SDS011;40710;51.120;13.136;2023-12-04T03:25:58;13.27;;;12.71;;
54328;SDS011;40710;51.120;13.136;2023-12-04T03:28:22;13.56;;;12.86;;
54328;SDS011;40710;51.120;13.136;2023-12-04T03:30:47;13.31;;;12.64;;
54328;SDS011;40710;51.120;13.136;2023-12-04T03:33:11;13.15;;;12.57;;
54328;SDS011;40710;51.120;13.136;2023-12-04T03:35:36;12.75;;;12.12;;
54328;SDS011;40710;51.120;13.136;2023-12-04T03:38:00;12.52;;;11.95;;
54328;SDS011;40710;51.120;13.136;2023-12-04T03:40:25;11.80;;;11.38;;
54328;SDS011;40710;51.120;13.136;2023-12-04T03:42:49;12.01;;;11.54;;
54328;SDS011;40710;51.120;13.136;2023-12-04T03:45:14;12.00;;;11.44;;
54328;SDS011;40710;51.120;13.136;2023-12-04T03:47:38;11.41;;;10.86;;
54328;SDS011;40710;51.120;13.136;2023-12-04T03:50:03;11.44;;;11.00;;
54328;SDS011;40710;51.120;13.136;2023-12-04T03:52:28;11.57;;;11.08;;
54328;SDS011;40710;51.120;13.136;2023-12-04T03:54:52;10.83;;;10.35;;
54328;SDS011;40710;51.120;13.136;2023-12-04T03:57:17;11.37;;;10.82;;
54328;SDS011;40710;51.120;13.136;2023-12-04T03:59:43;11.06;;;10.68;;
54328;SDS011;40710;51.120;13.136;2023-12-04T04:02:07;11.31;;;10.73;;
54328;SDS011;40710;51.120;13.136;2023-12-04T04:04:32;11.10;;;10.68;;
54328;SDS011;40710;51.120;13.136;2023-12-04T04:06:57;10.77;;;10.31;;
54328;SDS011;40710;51.120;13.136;2023-12-04T04:09:21;11.10;;;10.66;;
54328;SDS011;40710;51.120;13.136;2023-12-04T04:11:46;11.31;;;10.92;;
54328;SDS011;40710;51.120;13.136;2023-12-04T04:14:11;11.51;;;11.09;;
54328;SDS011;40710;51.120;13.136;2023-12-04T04:16:36;11.13;;;10.61;;
54328;SDS011;40710;51.120;13.136;2023-12-04T04:19:00;11.57;;;11.29;;
54328;SDS011;40710;51.120;13.136;2023-12-04T04:21:25;11.16;;;10.82;;
54328;SDS011;40710;51.120;13.136;2023-12-04T04:23:49;10.61;;;10.23;;
54328;SDS011;40710;51.120;13.136;2023-12-04T04:26:14;11.13;;;10.57;;
54328;SDS011;40710;51.120;13.136;2023-12-04T04:28:38;11.06;;;10.63;;
54328;SDS011;40710;51.120;13.136;2023-12-04T04:31:03;10.65;;;10.19;;
54328;SDS011;40710;51.120;13.136;2023-12-04T04:33:27;10.09;;;9.77;;
54328;SDS011;40710;51.120;13.136;2023-12-04T04:35:52;10.31;;;9.96;;
54328;SDS011;40710;51.120;13.136;2023-12-04T04:38:16;10.52;;;10.09;;
54328;SDS011;40710;51.120;13.136;2023-12-04T04:40:41;9.76;;;9.48;;
54328;SDS011;40710;51.120;13.136;2023-12-04T04:43:07;9.79;;;9.42;;
54328;SDS011;40710;51.120;13.136;2023-12-04T04:45:32;10.01;;;9.66;;
54328;SDS011;40710;51.120;13.136;2023-12-04T04:47:57;9.60;;;9.30;;
54328;SDS011;40710;51.120;13.136;2023-12-04T04:50:21;9.34;;;9.03;;
54328;SDS011;40710;51.120;13.136;2023-12-04T04:52:46;9.81;;;9.52;;
54328;SDS011;40710;51.120;13.136;2023-12-04T04:55:10;9.80;;;9.49;;
54328;SDS011;40710;51.120;13.136;2023-12-04T04:57:35;9.93;;;9.48;;
54328;SDS011;40710;51.120;13.136;2023-12-04T04:59:59;9.79;;;9.46;;
54328;SDS011;40710;51.120;13.136;2023-12-04T05:02:24;8.84;;;8.64;;
54328;SDS011;40710;51.120;13.136;2023-12-04T05:04:48;10.14;;;9.81;;
54328;SDS011;40710;51.120;13.136;2023-12-04T05:07:13;12.73;;;12.16;;
54328;SDS011;40710;51.120;13.136;2023-12-04T05:09:37;9.90;;;9.34;;
54328;SDS011;40710;51.120;13.136;2023-12-04T05:12:02;8.70;;;8.32;;
54328;SDS011;40710;51.120;13.136;2023-12-04T05:14:26;8.55;;;8.32;;
54328;SDS011;40710;51.120;13.136;2023-12-04T05:16:51;9.00;;;8.78;;
54328;SDS011;40710;51.120;13.136;2023-12-04T05:19:16;9.62;;;9.23;;
54328;SDS011;40710;51.120;13.136;2023-12-04T05:21:40;10.83;;;10.37;;
54328;SDS011;40710;51.120;13.136;2023-12-04T05:24:05;11.76;;;11.31;;
54328;SDS011;40710;51.120;13.136;2023-12-04T05:26:29;10.13;;;9.77;;
54328;SDS011;40710;51.120;13.136;2023-12-04T05:28:54;9.35;;;9.18;;
54328;SDS011;40710;51.120;13.136;2023-12-04T05:31:18;8.70;;;8.44;;
54328;SDS011;40710;51.120;13.136;2023-12-04T05:33:43;8.97;;;8.67;;
54328;SDS011;40710;51.120;13.136;2023-12-04T05:36:08;8.98;;;8.58;;
54328;SDS011;40710;51.120;13.136;2023-12-04T05:38:32;9.36;;;8.90;;
54328;SDS011;40710;51.120;13.136;2023-12-04T05:40:57;8.24;;;7.86;;
54328;SDS011;40710;51.120;13.136;2023-12-04T05:43:22;9.40;;;8.91;;
54328;SDS011;40710;51.120;13.136;2023-12-04T05:45:46;8.92;;;8.57;;
54328;SDS011;40710;51.120;13.136;2023-12-04T05:48:11;8.84;;;8.43;;
54328;SDS011;40710;51.120;13.136;2023-12-04T05:50:35;8.96;;;8.68;;
54328;SDS011;40710;51.120;13.136;2023-12-04T05:53:00;9.53;;;9.25;;
54328;SDS011;40710;51.120;13.136;2023-12-04T05:55:24;9.50;;;9.13;;
54328;SDS011;40710;51.120;13.136;2023-12-04T05:57:49;8.92;;;8.58;;
54328;SDS011;40710;51.120;13.136;2023-12-04T06:00:14;8.86;;;8.50;;
54328;SDS011;40710;51.120;13.136;2023-12-04T06:02:39;9.54;;;9.05;;
54328;SDS011;40710;51.120;13.136;2023-12-04T06:05:05;9.65;;;9.30;;
54328;SDS011;40710;51.120;13.136;2023-12-04T06:07:31;9.70;;;9.33;;
54328;SDS011;40710;51.120;13.136;2023-12-04T06:09:56;10.28;;;9.78;;
54328;SDS011;40710;51.120;13.136;2023-12-04T06:12:20;9.89;;;9.52;;
54328;SDS011;40710;51.120;13.136;2023-12-04T06:14:45;16.13;;;15.52;;
54328;SDS011;40710;51.120;13.136;2023-12-04T06:17:09;16.01;;;15.35;;
54328;SDS011;40710;51.120;13.136;2023-12-04T06:19:34;12.29;;;11.75;;
54328;SDS011;40710;51.120;13.136;2023-12-04T06:21:58;11.50;;;11.17;;
54328;SDS011;40710;51.120;13.136;2023-12-04T06:24:23;13.00;;;12.62;;
54328;SDS011;40710;51.120;13.136;2023-12-04T06:26:49;12.01;;;11.57;;
54328;SDS011;40710;51.120;13.136;2023-12-04T06:29:15;11.15;;;10.82;;
54328;SDS011;40710;51.120;13.136;2023-12-04T06:31:40;11.45;;;11.03;;
54328;SDS011;40710;51.120;13.136;2023-12-04T06:34:05;11.09;;;10.74;;
54328;SDS011;40710;51.120;13.136;2023-12-04T06:36:31;11.21;;;10.92;;
54328;SDS011;40710;51.120;13.136;2023-12-04T06:39:01;11.86;;;11.34;;
54328;SDS011;40710;51.120;13.136;2023-12-04T06:41:28;11.98;;;11.45;;
54328;SDS011;40710;51.120;13.136;2023-12-04T06:43:53;11.31;;;10.81;;
54328;SDS011;40710;51.120;13.136;2023-12-04T06:46:17;11.33;;;10.84;;
54328;SDS011;40710;51.120;13.136;2023-12-04T06:48:45;11.60;;;11.12;;
54328;SDS011;40710;51.120;13.136;2023-12-04T06:51:12;11.57;;;11.08;;
54328;SDS011;40710;51.120;13.136;2023-12-04T06:53:36;11.90;;;11.46;;
54328;SDS011;40710;51.120;13.136;2023-12-04T06:56:01;12.04;;;11.44;;
54328;SDS011;40710;51.120;13.136;2023-12-04T06:58:26;11.87;;;11.31;;
54328;SDS011;40710;51.120;13.136;2023-12-04T07:00:50;11.53;;;11.11;;
54328;SDS011;40710;51.120;13.136;2023-12-04T07:03:15;11.95;;;11.57;;
54328;SDS011;40710;51.120;13.136;2023-12-04T07:05:39;11.12;;;10.72;;
54328;SDS011;40710;51.120;13.136;2023-12-04T07:08:04;11.62;;;11.21;;
54328;SDS011;40710;51.120;13.136;2023-12-04T07:10:28;12.47;;;11.94;;
54328;SDS011;40710;51.120;13.136;2023-12-04T07:12:53;11.11;;;10.69;;
54328;SDS011;40710;51.120;13.136;2023-12-04T07:15:17;10.81;;;10.46;;
54328;SDS011;40710;51.120;13.136;2023-12-04T07:17:42;12.08;;;11.70;;
54328;SDS011;40710;51.120;13.136;2023-12-04T07:20:07;13.53;;;12.94;;
54328;SDS011;40710;51.120;13.136;2023-12-04T07:22:32;14.23;;;13.77;;
54328;SDS011;40710;51.120;13.136;2023-12-04T07:24:57;17.19;;;16.80;;
54328;SDS011;40710;51.120;13.136;2023-12-04T07:27:21;18.02;;;17.72;;
54328;SDS011;40710;51.120;13.136;2023-12-04T07:29:46;17.26;;;16.95;;
54328;SDS011;40710;51.120;13.136;2023-12-04T07:32:11;15.93;;;15.54;;
54328;SDS011;40710;51.120;13.136;2023-12-04T07:34:36;14.26;;;13.86;;
54328;SDS011;40710;51.120;13.136;2023-12-04T07:37:01;13.73;;;13.21;;
54328;SDS011;40710;51.120;13.136;2023-12-04T07:39:25;15.61;;;15.12;;
54328;SDS011;40710;51.120;13.136;2023-12-04T07:41:50;17.81;;;16.94;;
54328;SDS011;40710;51.120;13.136;2023-12-04T07:44:14;16.56;;;15.44;;
54328;SDS011;40710;51.120;13.136;2023-12-04T07:46:39;14.79;;;14.06;;
54328;SDS011;40710;51.120;13.136;2023-12-04T07:49:04;12.77;;;12.27;;
54328;SDS011;40710;51.120;13.136;2023-12-04T07:51:28;11.75;;;11.32;;
54328;SDS011;40710;51.120;13.136;2023-12-04T07:53:53;11.87;;;11.29;;
54328;SDS011;40710;51.120;13.136;2023-12-04T07:56:18;10.08;;;9.79;;
54328;SDS011;40710;51.120;13.136;2023-12-04T07:58:42;10.31;;;9.95;;
54328;SDS011;40710;51.120;13.136;2023-12-04T08:01:07;9.64;;;9.33;;
54328;SDS011;40710;51.120;13.136;2023-12-04T08:03:32;9.34;;;8.98;;
54328;SDS011;40710;51.120;13.136;2023-12-04T08:05:56;9.09;;;8.77;;
54328;SDS011;40710;51.120;13.136;2023-12-04T08:08:22;9.73;;;9.39;;
54328;SDS011;40710;51.120;13.136;2023-12-04T08:10:47;9.19;;;8.89;;
54328;SDS011;40710;51.120;13.136;2023-12-04T08:13:11;8.89;;;8.44;;
54328;SDS011;40710;51.120;13.136;2023-12-04T08:15:36;9.13;;;8.77;;
54328;SDS011;40710;51.120;13.136;2023-12-04T08:18:00;9.23;;;8.83;;
54328;SDS011;40710;51.120;13.136;2023-12-04T08:20:25;9.84;;;9.23;;
54328;SDS011;40710;51.120;13.136;2023-12-04T08:22:49;9.94;;;9.46;;
54328;SDS011;40710;51.120;13.136;2023-12-04T08:25:14;9.40;;;8.91;;
54328;SDS011;40710;51.120;13.136;2023-12-04T08:27:39;8.34;;;7.93;;
54328;SDS011;40710;51.120;13.136;2023-12-04T08:30:04;7.94;;;7.62;;
54328;SDS011;40710;51.120;13.136;2023-12-04T08:32:29;8.23;;;7.88;;
54328;SDS011;40710;51.120;13.136;2023-12-04T08:34:53;7.81;;;7.53;;
54328;SDS011;40710;51.120;13.136;2023-12-04T08:37:18;7.59;;;7.42;;
54328;SDS011;40710;51.120;13.136;2023-12-04T08:39:43;8.42;;;8.21;;
54328;SDS011;40710;51.120;13.136;2023-12-04T08:42:07;8.05;;;7.79;;
54328;SDS011;40710;51.120;13.136;2023-12-04T08:44:33;7.67;;;7.36;;
54328;SDS011;40710;51.120;13.136;2023-12-04T08:46:58;6.96;;;6.73;;
54328;SDS011;40710;51.120;13.136;2023-12-04T08:49:24;6.65;;;6.41;;
54328;SDS011;40710;51.120;13.136;2023-12-04T08:51:48;6.59;;;6.34;;
54328;SDS011;40710;51.120;13.136;2023-12-04T08:54:15;6.70;;;6.38;;
54328;SDS011;40710;51.120;13.136;2023-12-04T08:56:40;6.15;;;5.86;;
54328;SDS011;40710;51.120;13.136;2023-12-04T08:59:05;6.24;;;5.95;;
54328;SDS011;40710;51.120;13.136;2023-12-04T09:01:30;6.17;;;5.92;;
54328;SDS011;40710;51.120;13.136;2023-12-04T09:03:55;6.30;;;6.07;;
54328;SDS011;40710;51.120;13.136;2023-12-04T09:06:20;5.92;;;5.78;;
54328;SDS011;40710;51.120;13.136;2023-12-04T09:08:44;5.75;;;5.63;;
54328;SDS011;40710;51.120;13.136;2023-12-04T09:11:09;6.17;;;5.96;;
54328;SDS011;40710;51.120;13.136;2023-12-04T09:13:33;5.96;;;5.76;;
54328;SDS011;40710;51.120;13.136;2023-12-04T09:15:58;6.00;;;5.78;;
54328;SDS011;40710;51.120;13.136;2023-12-04T09:18:23;5.98;;;5.81;;
54328;SDS011;40710;51.120;13.136;2023-12-04T09:20:47;5.78;;;5.59;;
54328;SDS011;40710;51.120;13.136;2023-12-04T09:23:12;5.98;;;5.81;;
54328;SDS011;40710;51.120;13.136;2023-12-04T09:25:36;5.76;;;5.58;;
54328;SDS011;40710;51.120;13.136;2023-12-04T09:28:01;6.18;;;6.02;;
54328;SDS011;40710;51.120;13.136;2023-12-04T09:30:25;6.20;;;6.00;;
54328;SDS011;40710;51.120;13.136;2023-12-04T09:32:50;6.56;;;6.35;;
54328;SDS011;40710;51.120;13.136;2023-12-04T09:35:14;6.39;;;6.20;;
54328;SDS011;40710;51.120;13.136;2023-12-04T09:37:39;10.15;;;9.84;;
54328;SDS011;40710;51.120;13.136;2023-12-04T09:40:04;7.34;;;7.13;;
54328;SDS011;40710;51.120;13.136;2023-12-04T09:42:30;6.47;;;6.25;;
54328;SDS011;40710;51.120;13.136;2023-12-04T09:44:55;6.72;;;6.44;;
54328;SDS011;40710;51.120;13.136;2023-12-04T09:47:22;6.71;;;6.48;;
54328;SDS011;40710;51.120;13.136;2023-12-04T09:49:47;6.91;;;6.63;;
54328;SDS011;40710;51.120;13.136;2023-12-04T09:52:15;6.90;;;6.60;;
54328;SDS011;40710;51.120;13.136;2023-12-04T09:54:41;6.78;;;6.53;;
54328;SDS011;40710;51.120;13.136;2023-12-04T09:57:08;8.27;;;8.01;;
54328;SDS011;40710;51.120;13.136;2023-12-04T09:59:33;8.88;;;8.53;;
54328;SDS011;40710;51.120;13.136;2023-12-04T10:02:00;7.18;;;6.81;;
54328;SDS011;40710;51.120;13.136;2023-12-04T10:04:25;6.98;;;6.66;;
54328;SDS011;40710;51.120;13.136;2023-12-04T10:06:50;9.48;;;9.17;;
54328;SDS011;40710;51.120;13.136;2023-12-04T10:09:16;9.82;;;9.52;;
54328;SDS011;40710;51.120;13.136;2023-12-04T10:11:42;6.29;;;6.08;;
54328;SDS011;40710;51.120;13.136;2023-12-04T10:14:13;6.54;;;6.33;;
54328;SDS011;40710;51.120;13.136;2023-12-04T10:16:41;6.21;;;5.98;;
54328;SDS011;40710;51.120;13.136;2023-12-04T10:19:13;6.50;;;6.26;;
54328;SDS011;40710;51.120;13.136;2023-12-04T10:21:47;6.26;;;6.00;;
54328;SDS011;40710;51.120;13.136;2023-12-04T10:24:32;6.17;;;5.99;;
54328;SDS011;40710;51.120;13.136;2023-12-04T10:26:59;6.41;;;6.24;;
54328;SDS011;40710;51.120;13.136;2023-12-04T10:29:27;6.29;;;6.13;;
54328;SDS011;40710;51.120;13.136;2023-12-04T10:31:54;5.99;;;5.83;;
54328;SDS011;40710;51.120;13.136;2023-12-04T10:34:20;6.01;;;5.87;;
54328;SDS011;40710;51.120;13.136;2023-12-04T10:36:45;6.26;;;6.07;;
54328;SDS011;40710;51.120;13.136;2023-12-04T10:39:10;6.35;;;6.09;;
54328;SDS011;40710;51.120;13.136;2023-12-04T10:41:37;6.45;;;6.16;;
54328;SDS011;40710;51.120;13.136;2023-12-04T10:44:01;5.91;;;5.73;;
54328;SDS011;40710;51.120;13.136;2023-12-04T10:46:27;6.16;;;5.99;;
54328;SDS011;40710;51.120;13.136;2023-12-04T10:48:52;5.79;;;5.67;;
54328;SDS011;40710;51.120;13.136;2023-12-04T10:51:17;5.97;;;5.82;;
54328;SDS011;40710;51.120;13.136;2023-12-04T10:53:41;6.20;;;6.09;;
54328;SDS011;40710;51.120;13.136;2023-12-04T10:56:07;5.97;;;5.83;;
54328;SDS011;40710;51.120;13.136;2023-12-04T10:58:34;6.51;;;6.32;;
54328;SDS011;40710;51.120;13.136;2023-12-04T11:01:04;6.21;;;6.04;;
54328;SDS011;40710;51.120;13.136;2023-12-04T11:03:34;6.04;;;5.88;;
54328;SDS011;40710;51.120;13.136;2023-12-04T11:06:05;6.56;;;6.37;;
54328;SDS011;40710;51.120;13.136;2023-12-04T11:08:35;6.68;;;6.46;;
54328;SDS011;40710;51.120;13.136;2023-12-04T11:11:08;6.85;;;6.48;;
54328;SDS011;40710;51.120;13.136;2023-12-04T11:13:39;6.84;;;6.57;;
54328;SDS011;40710;51.120;13.136;2023-12-04T11:16:07;7.78;;;7.57;;
54328;SDS011;40710;51.120;13.136;2023-12-04T11:18:39;6.40;;;6.16;;
54328;SDS011;40710;51.120;13.136;2023-12-04T11:21:08;7.10;;;6.82;;
54328;SDS011;40710;51.120;13.136;2023-12-04T11:23:35;6.57;;;6.33;;
54328;SDS011;40710;51.120;13.136;2023-12-04T11:26:01;6.81;;;6.42;;
54328;SDS011;40710;51.120;13.136;2023-12-04T11:28:28;6.84;;;6.51;;
54328;SDS011;40710;51.120;13.136;2023-12-04T11:30:55;6.85;;;6.61;;
54328;SDS011;40710;51.120;13.136;2023-12-04T11:33:21;6.68;;;6.41;;
54328;SDS011;40710;51.120;13.136;2023-12-04T11:35:45;6.52;;;6.29;;
54328;SDS011;40710;51.120;13.136;2023-12-04T11:38:12;10.31;;;9.83;;
54328;SDS011;40710;51.120;13.136;2023-12-04T11:40:37;7.95;;;7.54;;
54328;SDS011;40710;51.120;13.136;2023-12-04T11:43:20;6.33;;;6.12;;
54328;SDS011;40710;51.120;13.136;2023-12-04T11:45:49;6.54;;;6.35;;
54328;SDS011;40710;51.120;13.136;2023-12-04T11:48:13;6.61;;;6.41;;
54328;SDS011;40710;51.120;13.136;2023-12-04T11:50:38;5.56;;;5.39;;
54328;SDS011;40710;51.120;13.136;2023-12-04T11:53:03;5.76;;;5.62;;
54328;SDS011;40710;51.120;13.136;2023-12-04T11:55:27;5.50;;;5.35;;
54328;SDS011;40710;51.120;13.136;2023-12-04T11:57:53;6.01;;;5.75;;
54328;SDS011;40710;51.120;13.136;2023-12-04T12:00:19;5.72;;;5.49;;
54328;SDS011;40710;51.120;13.136;2023-12-04T12:03:07;5.72;;;5.53;;
54328;SDS011;40710;51.120;13.136;2023-12-04T12:05:33;5.72;;;5.53;;
54328;SDS011;40710;51.120;13.136;2023-12-04T12:08:02;5.84;;;5.62;;
54328;SDS011;40710;51.120;13.136;2023-12-04T12:10:27;5.83;;;5.64;;
54328;SDS011;40710;51.120;13.136;2023-12-04T12:12:52;5.96;;;5.77;;
54328;SDS011;40710;51.120;13.136;2023-12-04T12:15:17;5.56;;;5.41;;
54328;SDS011;40710;51.120;13.136;2023-12-04T12:17:41;5.53;;;5.44;;
54328;SDS011;40710;51.120;13.136;2023-12-04T12:20:08;18.93;;;18.31;;
54328;SDS011;40710;51.120;13.136;2023-12-04T12:22:35;17.96;;;17.23;;
54328;SDS011;40710;51.120;13.136;2023-12-04T12:25:03;6.85;;;6.58;;
54328;SDS011;40710;51.120;13.136;2023-12-04T12:27:29;6.86;;;6.57;;
54328;SDS011;40710;51.120;13.136;2023-12-04T12:29:54;6.47;;;6.24;;
54328;SDS011;40710;51.120;13.136;2023-12-04T12:32:19;6.44;;;6.24;;
54328;SDS011;40710;51.120;13.136;2023-12-04T12:34:44;5.90;;;5.67;;
54328;SDS011;40710;51.120;13.136;2023-12-04T12:37:09;5.28;;;5.10;;
54328;SDS011;40710;51.120;13.136;2023-12-04T12:39:33;4.88;;;4.80;;
54328;SDS011;40710;51.120;13.136;2023-12-04T12:41:59;4.94;;;4.84;;
54328;SDS011;40710;51.120;13.136;2023-12-04T12:44:23;5.06;;;4.97;;
54328;SDS011;40710;51.120;13.136;2023-12-04T12:46:48;5.19;;;5.03;;
54328;SDS011;40710;51.120;13.136;2023-12-04T12:49:14;5.20;;;5.00;;
54328;SDS011;40710;51.120;13.136;2023-12-04T12:51:40;5.06;;;4.91;;
54328;SDS011;40710;51.120;13.136;2023-12-04T12:54:05;5.49;;;5.34;;
54328;SDS011;40710;51.120;13.136;2023-12-04T12:56:29;5.04;;;4.94;;
54328;SDS011;40710;51.120;13.136;2023-12-04T12:58:54;13.07;;;12.64;;
54328;SDS011;40710;51.120;13.136;2023-12-04T13:01:18;8.21;;;7.86;;
54328;SDS011;40710;51.120;13.136;2023-12-04T13:03:45;6.11;;;5.85;;
54328;SDS011;40710;51.120;13.136;2023-12-04T13:06:11;6.24;;;5.96;;
54328;SDS011;40710;51.120;13.136;2023-12-04T13:08:35;6.07;;;5.79;;
54328;SDS011;40710;51.120;13.136;2023-12-04T13:11:00;6.51;;;6.29;;
54328;SDS011;40710;51.120;13.136;2023-12-04T13:13:25;6.57;;;6.38;;
54328;SDS011;40710;51.120;13.136;2023-12-04T13:15:51;6.27;;;6.07;;
54328;SDS011;40710;51.120;13.136;2023-12-04T13:18:15;5.73;;;5.52;;
54328;SDS011;40710;51.120;13.136;2023-12-04T13:20:40;6.03;;;5.87;;
54328;SDS011;40710;51.120;13.136;2023-12-04T13:23:04;5.81;;;5.68;;
54328;SDS011;40710;51.120;13.136;2023-12-04T13:25:29;5.78;;;5.63;;
54328;SDS011;40710;51.120;13.136;2023-12-04T13:27:53;5.60;;;5.43;;
54328;SDS011;40710;51.120;13.136;2023-12-04T13:30:18;5.53;;;5.37;;
54328;SDS011;40710;51.120;13.136;2023-12-04T13:32:44;5.15;;;5.00;;
54328;SDS011;40710;51.120;13.136;2023-12-04T13:35:08;5.78;;;5.59;;
54328;SDS011;40710;51.120;13.136;2023-12-04T13:37:33;5.52;;;5.35;;
54328;SDS011;40710;51.120;13.136;2023-12-04T13:40:00;5.56;;;5.39;;
54328;SDS011;40710;51.120;13.136;2023-12-04T13:42:28;5.69;;;5.48;;
54328;SDS011;40710;51.120;13.136;2023-12-04T13:45:11;5.80;;;5.63;;
54328;SDS011;40710;51.120;13.136;2023-12-04T13:47:38;5.91;;;5.74;;
54328;SDS011;40710;51.120;13.136;2023-12-04T13:50:03;6.02;;;5.80;;
54328;SDS011;40710;51.120;13.136;2023-12-04T13:52:29;5.69;;;5.50;;
54328;SDS011;40710;51.120;13.136;2023-12-04T13:54:57;6.08;;;5.91;;
54328;SDS011;40710;51.120;13.136;2023-12-04T13:57:22;6.27;;;6.09;;
54328;SDS011;40710;51.120;13.136;2023-12-04T13:59:57;7.59;;;7.48;;
54328;SDS011;40710;51.120;13.136;2023-12-04T14:02:21;7.99;;;7.88;;
54328;SDS011;40710;51.120;13.136;2023-12-04T14:04:46;7.97;;;7.85;;
54328;SDS011;40710;51.120;13.136;2023-12-04T14:07:10;7.48;;;7.36;;
54328;SDS011;40710;51.120;13.136;2023-12-04T14:09:37;8.71;;;8.53;;